sensor_id;sensor_type;location;lat;lon;timestamp;temperature;humidity
25668;DHT22;18003;-33.830;151.202;2022-10-31T00:01:58;21.00;99.90
25668;DHT22;18003;-33.830;151.202;2022-10-31T00:04:28;21.00;99.90
25668;DHT22;18003;-33.830;151.202;2022-10-31T00:06:57;21.10;99.90
25668;DHT22;18003;-33.830;151.202;2022-10-31T00:09:28;21.10;99.90
25668;DHT22;18003;-33.830;151.202;2022-10-31T00:11:58;21.10;99.90
25668;DHT22;18003;-33.830;151.202;2022-10-31T00:14:28;21.10;99.90
25668;DHT22;18003;-33.830;151.202;2022-10-31T00:16:58;21.10;99.90
25668;DHT22;18003;-33.830;151.202;2022-10-31T00:19:28;21.10;99.90
25668;DHT22;18003;-33.830;151.202;2022-10-31T00:21:58;21.10;99.90
25668;DHT22;18003;-33.830;151.202;2022-10-31T00:24:28;21.20;99.90
25668;DHT22;18003;-33.830;151.202;2022-10-31T00:26:58;21.20;99.90
25668;DHT22;18003;-33.830;151.202;2022-10-31T00:29:29;21.30;99.90
25668;DHT22;18003;-33.830;151.202;2022-10-31T00:31:59;21.20;99.90
25668;DHT22;18003;-33.830;151.202;2022-10-31T00:34:29;21.20;99.90
25668;DHT22;18003;-33.830;151.202;2022-10-31T00:36:59;21.50;99.90
25668;DHT22;18003;-33.830;151.202;2022-10-31T00:39:29;21.50;99.90
25668;DHT22;18003;-33.830;151.202;2022-10-31T00:41:59;21.40;99.90
25668;DHT22;18003;-33.830;151.202;2022-10-31T00:44:29;21.40;99.90
25668;DHT22;18003;-33.830;151.202;2022-10-31T00:46:59;21.50;99.90
25668;DHT22;18003;-33.830;151.202;2022-10-31T00:49:29;21.50;99.90
25668;DHT22;18003;-33.830;151.202;2022-10-31T00:51:59;21.50;99.90
25668;DHT22;18003;-33.830;151.202;2022-10-31T00:54:29;21.50;99.90
25668;DHT22;18003;-33.830;151.202;2022-10-31T00:56:59;21.50;99.90
25668;DHT22;18003;-33.830;151.202;2022-10-31T00:59:29;21.60;99.90
25668;DHT22;18003;-33.830;151.202;2022-10-31T01:01:59;21.60;99.90
25668;DHT22;18003;-33.830;151.202;2022-10-31T01:04:29;21.60;99.90
25668;DHT22;18003;-33.830;151.202;2022-10-31T01:06:59;21.70;99.90
25668;DHT22;18003;-33.830;151.202;2022-10-31T01:09:29;21.70;99.90
25668;DHT22;18003;-33.830;151.202;2022-10-31T01:11:59;21.80;99.90
25668;DHT22;18003;-33.830;151.202;2022-10-31T01:14:29;21.80;99.90
25668;DHT22;18003;-33.830;151.202;2022-10-31T01:16:59;21.90;99.90
25668;DHT22;18003;-33.830;151.202;2022-10-31T01:19:30;22.00;99.90
25668;DHT22;18003;-33.830;151.202;2022-10-31T01:22:00;21.90;99.90
25668;DHT22;18003;-33.830;151.202;2022-10-31T01:24:30;21.90;99.90
25668;DHT22;18003;-33.830;151.202;2022-10-31T01:27:00;21.90;99.90
25668;DHT22;18003;-33.830;151.202;2022-10-31T01:29:30;21.90;99.90
25668;DHT22;18003;-33.830;151.202;2022-10-31T01:32:00;21.90;99.90
25668;DHT22;18003;-33.830;151.202;2022-10-31T01:34:30;21.90;99.90
25668;DHT22;18003;-33.830;151.202;2022-10-31T01:37:01;21.90;99.90
25668;DHT22;18003;-33.830;151.202;2022-10-31T01:39:31;21.90;99.90
25668;DHT22;18003;-33.830;151.202;2022-10-31T01:42:03;21.90;99.90
25668;DHT22;18003;-33.830;151.202;2022-10-31T01:47:13;21.90;99.90
25668;DHT22;18003;-33.830;151.202;2022-10-31T01:49:48;21.90;99.90
25668;DHT22;18003;-33.830;151.202;2022-10-31T01:52:23;21.90;99.90
25668;DHT22;18003;-33.830;151.202;2022-10-31T01:54:55;21.90;99.90
25668;DHT22;18003;-33.830;151.202;2022-10-31T01:57:26;21.90;99.90
25668;DHT22;18003;-33.830;151.202;2022-10-31T01:59:59;21.90;99.90
25668;DHT22;18003;-33.830;151.202;2022-10-31T02:02:30;21.90;99.90
25668;DHT22;18003;-33.830;151.202;2022-10-31T02:05:02;22.10;99.90
25668;DHT22;18003;-33.830;151.202;2022-10-31T02:07:38;22.10;99.90
25668;DHT22;18003;-33.830;151.202;2022-10-31T02:10:11;22.20;99.90
25668;DHT22;18003;-33.830;151.202;2022-10-31T02:12:41;22.20;99.90
25668;DHT22;18003;-33.830;151.202;2022-10-31T02:15:12;22.20;99.90
25668;DHT22;18003;-33.830;151.202;2022-10-31T02:17:44;22.20;99.90
25668;DHT22;18003;-33.830;151.202;2022-10-31T02:20:19;22.20;99.90
25668;DHT22;18003;-33.830;151.202;2022-10-31T02:26:05;22.20;99.90
25668;DHT22;18003;-33.830;151.202;2022-10-31T02:32:23;22.10;99.90
25668;DHT22;18003;-33.830;151.202;2022-10-31T02:34:21;22.20;99.90
25668;DHT22;18003;-33.830;151.202;2022-10-31T02:39:36;22.10;99.90
25668;DHT22;18003;-33.830;151.202;2022-10-31T02:42:27;22.10;99.90
25668;DHT22;18003;-33.830;151.202;2022-10-31T02:47:39;22.10;99.90
25668;DHT22;18003;-33.830;151.202;2022-10-31T02:52:42;22.10;99.90
25668;DHT22;18003;-33.830;151.202;2022-10-31T02:58:08;22.00;99.90
25668;DHT22;18003;-33.830;151.202;2022-10-31T03:00:30;22.00;99.90
25668;DHT22;18003;-33.830;151.202;2022-10-31T03:08:47;22.00;99.90
25668;DHT22;18003;-33.830;151.202;2022-10-31T03:11:11;22.00;99.90
25668;DHT22;18003;-33.830;151.202;2022-10-31T03:13:57;22.00;99.90
25668;DHT22;18003;-33.830;151.202;2022-10-31T03:16:28;22.00;99.90
25668;DHT22;18003;-33.830;151.202;2022-10-31T03:19:11;22.00;99.90
25668;DHT22;18003;-33.830;151.202;2022-10-31T03:24:23;22.00;99.90
25668;DHT22;18003;-33.830;151.202;2022-10-31T03:26:53;22.00;99.90
25668;DHT22;18003;-33.830;151.202;2022-10-31T03:29:26;22.00;99.90
25668;DHT22;18003;-33.830;151.202;2022-10-31T03:32:04;22.00;99.90
25668;DHT22;18003;-33.830;151.202;2022-10-31T03:34:32;22.00;99.90
25668;DHT22;18003;-33.830;151.202;2022-10-31T03:37:05;22.00;99.90
25668;DHT22;18003;-33.830;151.202;2022-10-31T03:39:37;22.10;99.90
25668;DHT22;18003;-33.830;151.202;2022-10-31T03:42:22;22.10;99.90
25668;DHT22;18003;-33.830;151.202;2022-10-31T03:44:57;22.10;99.90
25668;DHT22;18003;-33.830;151.202;2022-10-31T03:47:27;22.10;99.90
25668;DHT22;18003;-33.830;151.202;2022-10-31T03:49:58;22.00;99.90
25668;DHT22;18003;-33.830;151.202;2022-10-31T03:52:45;22.10;99.90
25668;DHT22;18003;-33.830;151.202;2022-10-31T03:55:18;22.10;99.90
25668;DHT22;18003;-33.830;151.202;2022-10-31T03:57:59;22.10;99.90
25668;DHT22;18003;-33.830;151.202;2022-10-31T04:00:30;22.10;99.90
25668;DHT22;18003;-33.830;151.202;2022-10-31T04:03:17;22.10;99.90
25668;DHT22;18003;-33.830;151.202;2022-10-31T04:05:44;22.10;99.90
25668;DHT22;18003;-33.830;151.202;2022-10-31T04:08:15;22.10;99.90
25668;DHT22;18003;-33.830;151.202;2022-10-31T04:10:47;22.10;99.90
25668;DHT22;18003;-33.830;151.202;2022-10-31T04:13:19;22.10;99.90
25668;DHT22;18003;-33.830;151.202;2022-10-31T04:15:50;22.10;99.90
25668;DHT22;18003;-33.830;151.202;2022-10-31T04:18:26;22.10;99.90
25668;DHT22;18003;-33.830;151.202;2022-10-31T04:21:07;22.20;99.90
25668;DHT22;18003;-33.830;151.202;2022-10-31T04:23:34;22.20;99.90
25668;DHT22;18003;-33.830;151.202;2022-10-31T04:26:04;22.20;99.90
25668;DHT22;18003;-33.830;151.202;2022-10-31T04:28:34;22.20;99.90
25668;DHT22;18003;-33.830;151.202;2022-10-31T04:31:04;22.20;99.90
25668;DHT22;18003;-33.830;151.202;2022-10-31T04:33:35;22.10;99.90
25668;DHT22;18003;-33.830;151.202;2022-10-31T04:36:06;22.10;99.90
25668;DHT22;18003;-33.830;151.202;2022-10-31T04:38:36;22.10;99.90
25668;DHT22;18003;-33.830;151.202;2022-10-31T04:41:07;22.20;99.90
25668;DHT22;18003;-33.830;151.202;2022-10-31T04:43:37;22.20;99.90
25668;DHT22;18003;-33.830;151.202;2022-10-31T04:46:07;22.10;99.90
25668;DHT22;18003;-33.830;151.202;2022-10-31T04:48:38;22.10;99.90
25668;DHT22;18003;-33.830;151.202;2022-10-31T04:51:11;22.00;99.90
25668;DHT22;18003;-33.830;151.202;2022-10-31T04:53:41;22.10;99.90
25668;DHT22;18003;-33.830;151.202;2022-10-31T04:56:11;22.10;99.90
25668;DHT22;18003;-33.830;151.202;2022-10-31T04:58:41;22.00;99.90
25668;DHT22;18003;-33.830;151.202;2022-10-31T05:01:11;22.10;99.90
25668;DHT22;18003;-33.830;151.202;2022-10-31T05:03:43;22.10;99.90
25668;DHT22;18003;-33.830;151.202;2022-10-31T05:06:13;22.10;99.90
25668;DHT22;18003;-33.830;151.202;2022-10-31T05:08:44;22.20;99.90
25668;DHT22;18003;-33.830;151.202;2022-10-31T05:11:14;22.20;99.90
25668;DHT22;18003;-33.830;151.202;2022-10-31T05:13:44;22.20;99.90
25668;DHT22;18003;-33.830;151.202;2022-10-31T05:16:14;22.20;99.90
25668;DHT22;18003;-33.830;151.202;2022-10-31T05:18:44;22.30;99.90
25668;DHT22;18003;-33.830;151.202;2022-10-31T05:21:14;22.30;99.90
25668;DHT22;18003;-33.830;151.202;2022-10-31T05:23:44;22.30;99.90
25668;DHT22;18003;-33.830;151.202;2022-10-31T05:26:14;22.20;99.90
25668;DHT22;18003;-33.830;151.202;2022-10-31T05:28:44;22.20;99.90
25668;DHT22;18003;-33.830;151.202;2022-10-31T05:31:14;22.20;99.90
25668;DHT22;18003;-33.830;151.202;2022-10-31T05:33:44;22.10;99.90
25668;DHT22;18003;-33.830;151.202;2022-10-31T05:36:14;22.10;99.90
25668;DHT22;18003;-33.830;151.202;2022-10-31T05:38:45;22.10;99.90
25668;DHT22;18003;-33.830;151.202;2022-10-31T05:41:15;22.10;99.90
25668;DHT22;18003;-33.830;151.202;2022-10-31T05:43:46;22.20;99.90
25668;DHT22;18003;-33.830;151.202;2022-10-31T05:46:16;22.20;99.90
25668;DHT22;18003;-33.830;151.202;2022-10-31T05:48:46;22.20;99.90
25668;DHT22;18003;-33.830;151.202;2022-10-31T05:51:16;22.30;99.90
25668;DHT22;18003;-33.830;151.202;2022-10-31T05:53:47;22.60;99.90
25668;DHT22;18003;-33.830;151.202;2022-10-31T05:56:17;22.80;99.90
25668;DHT22;18003;-33.830;151.202;2022-10-31T05:58:47;23.00;99.90
25668;DHT22;18003;-33.830;151.202;2022-10-31T06:01:17;23.20;99.90
25668;DHT22;18003;-33.830;151.202;2022-10-31T06:03:47;23.30;99.90
25668;DHT22;18003;-33.830;151.202;2022-10-31T06:06:17;23.30;99.90
25668;DHT22;18003;-33.830;151.202;2022-10-31T06:08:47;23.20;99.90
25668;DHT22;18003;-33.830;151.202;2022-10-31T06:11:17;23.20;99.90
25668;DHT22;18003;-33.830;151.202;2022-10-31T06:13:47;23.30;99.90
25668;DHT22;18003;-33.830;151.202;2022-10-31T06:16:17;23.30;99.90
25668;DHT22;18003;-33.830;151.202;2022-10-31T06:18:47;23.30;99.90
25668;DHT22;18003;-33.830;151.202;2022-10-31T06:21:17;23.30;99.90
25668;DHT22;18003;-33.830;151.202;2022-10-31T06:23:47;23.30;99.90
25668;DHT22;18003;-33.830;151.202;2022-10-31T06:26:17;23.30;99.90
25668;DHT22;18003;-33.830;151.202;2022-10-31T06:28:47;23.30;99.90
25668;DHT22;18003;-33.830;151.202;2022-10-31T06:31:17;23.30;99.90
25668;DHT22;18003;-33.830;151.202;2022-10-31T06:33:47;23.30;99.90
25668;DHT22;18003;-33.830;151.202;2022-10-31T06:36:17;23.30;99.90
25668;DHT22;18003;-33.830;151.202;2022-10-31T06:38:49;23.30;99.90
25668;DHT22;18003;-33.830;151.202;2022-10-31T06:41:38;23.30;99.90
25668;DHT22;18003;-33.830;151.202;2022-10-31T06:44:08;23.30;99.90
25668;DHT22;18003;-33.830;151.202;2022-10-31T06:46:38;23.30;99.90
25668;DHT22;18003;-33.830;151.202;2022-10-31T06:49:09;23.30;99.90
25668;DHT22;18003;-33.830;151.202;2022-10-31T06:51:40;23.30;99.90
25668;DHT22;18003;-33.830;151.202;2022-10-31T06:54:10;23.30;99.90
25668;DHT22;18003;-33.830;151.202;2022-10-31T06:56:40;23.30;99.90
25668;DHT22;18003;-33.830;151.202;2022-10-31T06:59:10;23.30;99.90
25668;DHT22;18003;-33.830;151.202;2022-10-31T07:01:41;23.30;99.90
25668;DHT22;18003;-33.830;151.202;2022-10-31T07:04:15;23.30;99.90
25668;DHT22;18003;-33.830;151.202;2022-10-31T07:06:45;23.20;99.90
25668;DHT22;18003;-33.830;151.202;2022-10-31T07:09:15;23.20;99.90
25668;DHT22;18003;-33.830;151.202;2022-10-31T07:11:45;23.10;99.90
25668;DHT22;18003;-33.830;151.202;2022-10-31T07:14:15;23.10;99.90
25668;DHT22;18003;-33.830;151.202;2022-10-31T07:16:48;23.20;99.90
25668;DHT22;18003;-33.830;151.202;2022-10-31T07:19:17;23.20;99.90
25668;DHT22;18003;-33.830;151.202;2022-10-31T07:21:50;23.20;99.90
25668;DHT22;18003;-33.830;151.202;2022-10-31T07:24:21;23.20;99.90
25668;DHT22;18003;-33.830;151.202;2022-10-31T07:26:52;23.20;99.90
25668;DHT22;18003;-33.830;151.202;2022-10-31T07:29:26;23.20;99.90
25668;DHT22;18003;-33.830;151.202;2022-10-31T07:31:56;23.10;99.90
25668;DHT22;18003;-33.830;151.202;2022-10-31T07:34:26;23.10;99.90
25668;DHT22;18003;-33.830;151.202;2022-10-31T07:36:56;23.10;99.90
25668;DHT22;18003;-33.830;151.202;2022-10-31T07:39:26;23.20;99.90
25668;DHT22;18003;-33.830;151.202;2022-10-31T07:42:02;23.10;99.90
25668;DHT22;18003;-33.830;151.202;2022-10-31T07:44:29;23.10;99.90
25668;DHT22;18003;-33.830;151.202;2022-10-31T07:46:59;23.00;99.90
25668;DHT22;18003;-33.830;151.202;2022-10-31T07:49:29;23.00;99.90
25668;DHT22;18003;-33.830;151.202;2022-10-31T07:51:59;23.10;99.90
25668;DHT22;18003;-33.830;151.202;2022-10-31T07:54:29;23.10;99.90
25668;DHT22;18003;-33.830;151.202;2022-10-31T07:56:59;23.00;99.90
25668;DHT22;18003;-33.830;151.202;2022-10-31T07:59:29;23.00;99.90
25668;DHT22;18003;-33.830;151.202;2022-10-31T08:01:59;23.00;99.90
25668;DHT22;18003;-33.830;151.202;2022-10-31T08:04:29;23.00;99.90
25668;DHT22;18003;-33.830;151.202;2022-10-31T08:06:59;23.00;99.90
25668;DHT22;18003;-33.830;151.202;2022-10-31T08:09:29;23.00;99.90
25668;DHT22;18003;-33.830;151.202;2022-10-31T08:11:59;23.00;99.90
25668;DHT22;18003;-33.830;151.202;2022-10-31T08:14:29;23.00;99.90
25668;DHT22;18003;-33.830;151.202;2022-10-31T08:16:59;23.00;99.90
25668;DHT22;18003;-33.830;151.202;2022-10-31T08:19:29;23.00;99.90
25668;DHT22;18003;-33.830;151.202;2022-10-31T08:21:59;23.00;99.90
25668;DHT22;18003;-33.830;151.202;2022-10-31T08:24:29;23.00;99.90
25668;DHT22;18003;-33.830;151.202;2022-10-31T08:26:59;23.00;99.90
25668;DHT22;18003;-33.830;151.202;2022-10-31T08:29:29;23.00;99.90
25668;DHT22;18003;-33.830;151.202;2022-10-31T08:31:59;23.00;99.90
25668;DHT22;18003;-33.830;151.202;2022-10-31T08:34:29;23.00;99.90
25668;DHT22;18003;-33.830;151.202;2022-10-31T08:36:59;22.90;99.90
25668;DHT22;18003;-33.830;151.202;2022-10-31T08:39:29;22.90;99.90
25668;DHT22;18003;-33.830;151.202;2022-10-31T08:41:59;23.00;99.90
25668;DHT22;18003;-33.830;151.202;2022-10-31T08:44:29;23.00;99.90
25668;DHT22;18003;-33.830;151.202;2022-10-31T08:47:00;22.90;99.90
25668;DHT22;18003;-33.830;151.202;2022-10-31T08:49:30;22.90;99.90
25668;DHT22;18003;-33.830;151.202;2022-10-31T08:52:00;22.90;99.90
25668;DHT22;18003;-33.830;151.202;2022-10-31T08:54:30;22.90;99.90
25668;DHT22;18003;-33.830;151.202;2022-10-31T08:57:01;23.00;99.90
25668;DHT22;18003;-33.830;151.202;2022-10-31T08:59:31;23.00;99.90
25668;DHT22;18003;-33.830;151.202;2022-10-31T09:02:01;22.90;99.90
25668;DHT22;18003;-33.830;151.202;2022-10-31T09:04:31;22.90;99.90
25668;DHT22;18003;-33.830;151.202;2022-10-31T09:07:01;22.90;99.90
25668;DHT22;18003;-33.830;151.202;2022-10-31T09:09:31;22.90;99.90
25668;DHT22;18003;-33.830;151.202;2022-10-31T09:12:01;22.90;99.90
25668;DHT22;18003;-33.830;151.202;2022-10-31T09:14:31;22.90;99.90
25668;DHT22;18003;-33.830;151.202;2022-10-31T09:17:01;22.90;99.90
25668;DHT22;18003;-33.830;151.202;2022-10-31T09:19:33;22.90;99.90
25668;DHT22;18003;-33.830;151.202;2022-10-31T09:22:03;22.90;99.90
25668;DHT22;18003;-33.830;151.202;2022-10-31T09:24:33;22.80;99.90
25668;DHT22;18003;-33.830;151.202;2022-10-31T09:27:03;22.80;99.90
25668;DHT22;18003;-33.830;151.202;2022-10-31T09:29:33;22.80;99.90
25668;DHT22;18003;-33.830;151.202;2022-10-31T09:32:03;22.80;99.90
25668;DHT22;18003;-33.830;151.202;2022-10-31T09:34:33;22.80;99.90
25668;DHT22;18003;-33.830;151.202;2022-10-31T09:37:03;22.70;99.90
25668;DHT22;18003;-33.830;151.202;2022-10-31T09:39:33;22.70;99.90
25668;DHT22;18003;-33.830;151.202;2022-10-31T09:42:06;22.70;99.90
25668;DHT22;18003;-33.830;151.202;2022-10-31T09:44:59;22.70;99.90
25668;DHT22;18003;-33.830;151.202;2022-10-31T09:50:14;22.70;99.90
25668;DHT22;18003;-33.830;151.202;2022-10-31T09:52:56;22.70;99.90
25668;DHT22;18003;-33.830;151.202;2022-10-31T09:55:23;22.70;99.90
25668;DHT22;18003;-33.830;151.202;2022-10-31T09:57:48;22.70;99.90
25668;DHT22;18003;-33.830;151.202;2022-10-31T10:00:20;22.70;99.90
25668;DHT22;18003;-33.830;151.202;2022-10-31T10:02:52;22.70;99.90
25668;DHT22;18003;-33.830;151.202;2022-10-31T10:08:23;22.70;99.90
25668;DHT22;18003;-33.830;151.202;2022-10-31T10:21:32;22.60;99.90
25668;DHT22;18003;-33.830;151.202;2022-10-31T10:24:08;22.60;99.90
25668;DHT22;18003;-33.830;151.202;2022-10-31T10:26:49;22.60;99.90
25668;DHT22;18003;-33.830;151.202;2022-10-31T10:31:55;22.60;99.90
25668;DHT22;18003;-33.830;151.202;2022-10-31T10:34:28;22.60;99.90
25668;DHT22;18003;-33.830;151.202;2022-10-31T10:37:38;22.60;99.90
25668;DHT22;18003;-33.830;151.202;2022-10-31T10:39:43;22.60;99.90
25668;DHT22;18003;-33.830;151.202;2022-10-31T10:42:14;22.50;99.90
25668;DHT22;18003;-33.830;151.202;2022-10-31T10:45:19;22.50;99.90
25668;DHT22;18003;-33.830;151.202;2022-10-31T10:48:21;22.50;99.90
25668;DHT22;18003;-33.830;151.202;2022-10-31T10:50:50;22.50;99.90
25668;DHT22;18003;-33.830;151.202;2022-10-31T10:53:32;22.50;99.90
25668;DHT22;18003;-33.830;151.202;2022-10-31T10:56:14;22.50;99.90
25668;DHT22;18003;-33.830;151.202;2022-10-31T10:58:43;22.50;99.90
25668;DHT22;18003;-33.830;151.202;2022-10-31T11:01:14;22.40;99.90
25668;DHT22;18003;-33.830;151.202;2022-10-31T11:03:44;22.40;99.90
25668;DHT22;18003;-33.830;151.202;2022-10-31T11:06:26;22.40;99.90
25668;DHT22;18003;-33.830;151.202;2022-10-31T11:08:53;22.40;99.90
25668;DHT22;18003;-33.830;151.202;2022-10-31T11:11:27;22.40;99.90
25668;DHT22;18003;-33.830;151.202;2022-10-31T11:14:03;22.40;99.90
25668;DHT22;18003;-33.830;151.202;2022-10-31T11:16:40;22.40;99.90
25668;DHT22;18003;-33.830;151.202;2022-10-31T11:19:21;22.40;99.90
25668;DHT22;18003;-33.830;151.202;2022-10-31T11:21:51;22.40;99.90
25668;DHT22;18003;-33.830;151.202;2022-10-31T11:24:22;22.40;99.90
25668;DHT22;18003;-33.830;151.202;2022-10-31T11:27:16;22.40;99.90
25668;DHT22;18003;-33.830;151.202;2022-10-31T11:29:26;22.30;99.90
25668;DHT22;18003;-33.830;151.202;2022-10-31T11:32:02;22.40;99.90
25668;DHT22;18003;-33.830;151.202;2022-10-31T11:34:35;22.40;99.90
25668;DHT22;18003;-33.830;151.202;2022-10-31T11:37:33;22.30;99.90
25668;DHT22;18003;-33.830;151.202;2022-10-31T11:40:00;22.30;99.90
25668;DHT22;18003;-33.830;151.202;2022-10-31T11:42:40;22.30;99.90
25668;DHT22;18003;-33.830;151.202;2022-10-31T11:45:19;22.30;99.90
25668;DHT22;18003;-33.830;151.202;2022-10-31T11:47:50;22.30;99.90
25668;DHT22;18003;-33.830;151.202;2022-10-31T11:50:31;22.30;99.90
25668;DHT22;18003;-33.830;151.202;2022-10-31T11:53:00;22.30;99.90
25668;DHT22;18003;-33.830;151.202;2022-10-31T11:55:35;22.30;99.90
25668;DHT22;18003;-33.830;151.202;2022-10-31T11:58:19;22.30;99.90
25668;DHT22;18003;-33.830;151.202;2022-10-31T12:00:39;22.30;99.90
25668;DHT22;18003;-33.830;151.202;2022-10-31T12:08:36;22.20;99.90
25668;DHT22;18003;-33.830;151.202;2022-10-31T12:25:02;22.10;99.90
25668;DHT22;18003;-33.830;151.202;2022-10-31T12:33:53;22.10;99.90
25668;DHT22;18003;-33.830;151.202;2022-10-31T12:41:57;22.10;99.90
25668;DHT22;18003;-33.830;151.202;2022-10-31T12:44:51;22.10;99.90
25668;DHT22;18003;-33.830;151.202;2022-10-31T12:58:57;22.00;99.90
25668;DHT22;18003;-33.830;151.202;2022-10-31T13:01:41;22.00;99.90
25668;DHT22;18003;-33.830;151.202;2022-10-31T13:04:35;22.00;99.90
25668;DHT22;18003;-33.830;151.202;2022-10-31T13:07:00;22.00;99.90
25668;DHT22;18003;-33.830;151.202;2022-10-31T13:09:37;22.00;99.90
25668;DHT22;18003;-33.830;151.202;2022-10-31T13:12:16;22.00;99.90
25668;DHT22;18003;-33.830;151.202;2022-10-31T13:14:53;22.00;99.90
25668;DHT22;18003;-33.830;151.202;2022-10-31T13:17:26;22.00;99.90
25668;DHT22;18003;-33.830;151.202;2022-10-31T13:20:02;21.90;99.90
25668;DHT22;18003;-33.830;151.202;2022-10-31T13:22:29;22.00;99.90
25668;DHT22;18003;-33.830;151.202;2022-10-31T13:28:01;21.90;99.90
25668;DHT22;18003;-33.830;151.202;2022-10-31T13:30:40;21.90;99.90
25668;DHT22;18003;-33.830;151.202;2022-10-31T13:33:14;21.90;99.90
25668;DHT22;18003;-33.830;151.202;2022-10-31T13:44:27;21.90;99.90
25668;DHT22;18003;-33.830;151.202;2022-10-31T13:46:55;21.90;99.90
25668;DHT22;18003;-33.830;151.202;2022-10-31T13:52:14;21.90;99.90
25668;DHT22;18003;-33.830;151.202;2022-10-31T13:54:48;21.90;99.90
25668;DHT22;18003;-33.830;151.202;2022-10-31T13:57:41;21.90;99.90
25668;DHT22;18003;-33.830;151.202;2022-10-31T14:02:52;21.90;99.90
25668;DHT22;18003;-33.830;151.202;2022-10-31T14:05:30;21.90;99.90
25668;DHT22;18003;-33.830;151.202;2022-10-31T14:08:02;21.90;99.90
25668;DHT22;18003;-33.830;151.202;2022-10-31T14:10:35;21.90;99.90
25668;DHT22;18003;-33.830;151.202;2022-10-31T14:13:24;22.00;99.90
25668;DHT22;18003;-33.830;151.202;2022-10-31T14:15:40;22.00;99.90
25668;DHT22;18003;-33.830;151.202;2022-10-31T14:23:55;21.90;99.90
25668;DHT22;18003;-33.830;151.202;2022-10-31T14:29:02;22.00;99.90
25668;DHT22;18003;-33.830;151.202;2022-10-31T14:31:51;21.90;99.90
25668;DHT22;18003;-33.830;151.202;2022-10-31T14:34:43;21.90;99.90
25668;DHT22;18003;-33.830;151.202;2022-10-31T14:39:56;21.90;99.90
25668;DHT22;18003;-33.830;151.202;2022-10-31T14:50:59;21.90;99.90
25668;DHT22;18003;-33.830;151.202;2022-10-31T14:53:40;21.90;99.90
25668;DHT22;18003;-33.830;151.202;2022-10-31T14:56:09;21.90;99.90
25668;DHT22;18003;-33.830;151.202;2022-10-31T14:58:41;21.90;99.90
25668;DHT22;18003;-33.830;151.202;2022-10-31T15:01:25;21.90;99.90
25668;DHT22;18003;-33.830;151.202;2022-10-31T15:04:04;21.90;99.90
25668;DHT22;18003;-33.830;151.202;2022-10-31T15:06:44;21.90;99.90
25668;DHT22;18003;-33.830;151.202;2022-10-31T15:09:28;21.90;99.90
25668;DHT22;18003;-33.830;151.202;2022-10-31T15:11:59;21.90;99.90
25668;DHT22;18003;-33.830;151.202;2022-10-31T15:14:30;21.90;99.90
25668;DHT22;18003;-33.830;151.202;2022-10-31T15:17:02;21.90;99.90
25668;DHT22;18003;-33.830;151.202;2022-10-31T15:19:33;21.90;99.90
25668;DHT22;18003;-33.830;151.202;2022-10-31T15:22:04;21.90;99.90
25668;DHT22;18003;-33.830;151.202;2022-10-31T15:24:40;21.90;99.90
25668;DHT22;18003;-33.830;151.202;2022-10-31T15:27:18;21.90;99.90
25668;DHT22;18003;-33.830;151.202;2022-10-31T15:29:54;21.90;99.90
25668;DHT22;18003;-33.830;151.202;2022-10-31T15:32:25;21.90;99.90
25668;DHT22;18003;-33.830;151.202;2022-10-31T15:34:56;21.90;99.90
25668;DHT22;18003;-33.830;151.202;2022-10-31T15:37:26;21.90;99.90
25668;DHT22;18003;-33.830;151.202;2022-10-31T15:40:05;21.90;99.90
25668;DHT22;18003;-33.830;151.202;2022-10-31T15:42:39;21.90;99.90
25668;DHT22;18003;-33.830;151.202;2022-10-31T15:45:17;21.80;99.90
25668;DHT22;18003;-33.830;151.202;2022-10-31T15:47:37;21.90;99.90
25668;DHT22;18003;-33.830;151.202;2022-10-31T15:50:18;21.90;99.90
25668;DHT22;18003;-33.830;151.202;2022-10-31T15:52:47;21.80;99.90
25668;DHT22;18003;-33.830;151.202;2022-10-31T15:55:19;21.80;99.90
25668;DHT22;18003;-33.830;151.202;2022-10-31T15:57:55;21.80;99.90
25668;DHT22;18003;-33.830;151.202;2022-10-31T16:00:35;21.80;99.90
25668;DHT22;18003;-33.830;151.202;2022-10-31T16:05:51;21.80;99.90
25668;DHT22;18003;-33.830;151.202;2022-10-31T16:08:26;21.80;99.90
25668;DHT22;18003;-33.830;151.202;2022-10-31T16:10:57;21.80;99.90
25668;DHT22;18003;-33.830;151.202;2022-10-31T16:13:36;21.80;99.90
25668;DHT22;18003;-33.830;151.202;2022-10-31T16:16:13;21.80;99.90
25668;DHT22;18003;-33.830;151.202;2022-10-31T16:18:44;21.80;99.90
25668;DHT22;18003;-33.830;151.202;2022-10-31T16:21:14;21.80;99.90
25668;DHT22;18003;-33.830;151.202;2022-10-31T16:23:53;21.80;99.90
25668;DHT22;18003;-33.830;151.202;2022-10-31T16:26:18;21.80;99.90
25668;DHT22;18003;-33.830;151.202;2022-10-31T16:28:55;21.80;99.90
25668;DHT22;18003;-33.830;151.202;2022-10-31T16:31:39;21.80;99.90
25668;DHT22;18003;-33.830;151.202;2022-10-31T16:34:14;21.80;99.90
25668;DHT22;18003;-33.830;151.202;2022-10-31T16:36:44;21.80;99.90
25668;DHT22;18003;-33.830;151.202;2022-10-31T16:39:14;21.80;99.90
25668;DHT22;18003;-33.830;151.202;2022-10-31T16:41:50;21.80;99.90
25668;DHT22;18003;-33.830;151.202;2022-10-31T16:44:28;21.70;99.90
25668;DHT22;18003;-33.830;151.202;2022-10-31T16:47:15;21.70;99.90
25668;DHT22;18003;-33.830;151.202;2022-10-31T16:49:47;21.70;99.90
25668;DHT22;18003;-33.830;151.202;2022-10-31T16:52:20;21.70;99.90
25668;DHT22;18003;-33.830;151.202;2022-10-31T16:54:50;21.70;99.90
25668;DHT22;18003;-33.830;151.202;2022-10-31T16:57:23;21.70;99.90
25668;DHT22;18003;-33.830;151.202;2022-10-31T16:59:53;21.70;99.90
25668;DHT22;18003;-33.830;151.202;2022-10-31T17:02:25;21.70;99.90
25668;DHT22;18003;-33.830;151.202;2022-10-31T17:04:55;21.70;99.90
25668;DHT22;18003;-33.830;151.202;2022-10-31T17:07:25;21.70;99.90
25668;DHT22;18003;-33.830;151.202;2022-10-31T17:09:55;21.70;99.90
25668;DHT22;18003;-33.830;151.202;2022-10-31T17:12:26;21.70;99.90
25668;DHT22;18003;-33.830;151.202;2022-10-31T17:14:56;21.70;99.90
25668;DHT22;18003;-33.830;151.202;2022-10-31T17:17:26;21.70;99.90
25668;DHT22;18003;-33.830;151.202;2022-10-31T17:19:56;21.70;99.90
25668;DHT22;18003;-33.830;151.202;2022-10-31T17:22:27;21.70;99.90
25668;DHT22;18003;-33.830;151.202;2022-10-31T17:24:57;21.70;99.90
25668;DHT22;18003;-33.830;151.202;2022-10-31T17:27:26;21.70;99.90
25668;DHT22;18003;-33.830;151.202;2022-10-31T17:29:57;21.70;99.90